createdAt,value
2022-11-16T00:00:46.410Z,2.91
2022-11-16T00:02:23.127Z,2.60
2022-11-16T00:03:54.751Z,2.68
2022-11-16T00:05:36.138Z,2.79
2022-11-16T00:07:22.381Z,3.38
2022-11-16T00:08:55.022Z,2.87
2022-11-16T00:10:26.503Z,2.92
2022-11-16T00:11:58.258Z,2.78
2022-11-16T00:13:29.599Z,3.17
2022-11-16T00:15:01.084Z,3.42
2022-11-16T00:16:32.723Z,3.30
2022-11-16T00:18:04.270Z,3.22
2022-11-16T00:19:35.816Z,3.23
2022-11-16T00:21:28.078Z,3.23
2022-11-16T00:23:01.951Z,3.20
2022-11-16T00:24:33.701Z,3.10
2022-11-16T00:26:05.387Z,3.13
2022-11-16T00:27:36.844Z,3.16
2022-11-16T00:29:13.592Z,3.00
2022-11-16T00:30:45.001Z,3.22
2022-11-16T00:32:16.527Z,3.34
2022-11-16T00:33:47.965Z,3.28
2022-11-16T00:35:19.648Z,3.18
2022-11-16T00:36:51.540Z,3.10
2022-11-16T00:38:22.929Z,3.47
2022-11-16T00:39:54.574Z,3.66
2022-11-16T00:41:34.732Z,3.60
2022-11-16T00:43:37.364Z,3.63
2022-11-16T00:45:11.672Z,3.55
2022-11-16T00:46:52.324Z,3.52
2022-11-16T00:48:24.300Z,3.62
2022-11-16T00:49:56.071Z,3.47
2022-11-16T00:51:27.783Z,3.43
2022-11-16T00:52:59.300Z,3.56
2022-11-16T00:54:30.997Z,3.62
2022-11-16T00:56:18.183Z,3.56
2022-11-16T00:58:15.256Z,3.61
2022-11-16T00:59:46.955Z,3.52
2022-11-16T01:01:18.600Z,3.43
2022-11-16T01:02:50.162Z,3.65
2022-11-16T01:04:22.161Z,3.72
2022-11-16T01:05:53.447Z,3.56
2022-11-16T01:07:24.839Z,3.77
2022-11-16T01:08:56.265Z,3.72
2022-11-16T01:10:27.723Z,3.56
2022-11-16T01:12:14.111Z,3.93
2022-11-16T01:13:45.669Z,3.87
2022-11-16T01:15:17.223Z,4.05
2022-11-16T01:16:49.008Z,3.93
2022-11-16T01:18:20.455Z,3.94
2022-11-16T01:19:51.789Z,4.06
2022-11-16T01:21:23.204Z,4.07
2022-11-16T01:22:59.735Z,4.29
2022-11-16T01:24:31.083Z,4.21
2022-11-16T01:26:02.514Z,4.29
2022-11-16T01:27:33.904Z,4.19
2022-11-16T01:29:05.238Z,4.36
2022-11-16T01:30:36.570Z,4.07
2022-11-16T01:32:08.256Z,4.20
2022-11-16T01:33:39.642Z,4.41
2022-11-16T01:35:11.061Z,4.49
2022-11-16T01:36:42.740Z,4.60
2022-11-16T01:38:14.178Z,4.68
2022-11-16T01:39:45.861Z,4.65
2022-11-16T01:41:17.485Z,4.50
2022-11-16T01:42:49.240Z,4.45
2022-11-16T01:44:20.752Z,4.40
2022-11-16T01:45:52.352Z,4.55
2022-11-16T01:47:24.072Z,4.48
2022-11-16T01:48:55.564Z,4.58
2022-11-16T01:50:26.973Z,4.36
2022-11-16T01:51:58.805Z,4.66
2022-11-16T01:53:40.356Z,4.53
2022-11-16T01:55:11.711Z,4.35
2022-11-16T01:56:48.143Z,4.46
2022-11-16T01:58:22.264Z,4.61
2022-11-16T01:59:53.762Z,4.45
2022-11-16T02:01:25.380Z,4.43
2022-11-16T02:02:57.024Z,4.58
2022-11-16T02:04:28.912Z,4.51
2022-11-16T02:06:00.913Z,4.37
2022-11-16T02:07:32.270Z,4.40
2022-11-16T02:09:03.942Z,4.42
2022-11-16T02:10:35.687Z,4.33
2022-11-16T02:12:07.278Z,4.56
2022-11-16T02:13:38.893Z,4.72
2022-11-16T02:15:10.332Z,5.08
2022-11-16T02:16:41.966Z,13.19
2022-11-16T02:18:13.751Z,7.24
2022-11-16T02:19:45.129Z,5.26
2022-11-16T02:21:17.325Z,4.62
2022-11-16T02:22:49.145Z,4.25
2022-11-16T02:24:20.599Z,4.45
2022-11-16T02:25:52.107Z,4.18
2022-11-16T02:27:28.759Z,4.32
2022-11-16T02:29:00.173Z,4.37
2022-11-16T02:30:31.518Z,4.36
2022-11-16T02:32:02.943Z,4.70
2022-11-16T02:33:39.216Z,5.04
2022-11-16T02:35:15.665Z,4.77
2022-11-16T02:36:48.222Z,4.59
2022-11-16T02:38:19.555Z,5.15
2022-11-16T02:39:50.808Z,4.99
2022-11-16T02:41:22.462Z,4.87
2022-11-16T02:42:53.804Z,4.66
2022-11-16T02:44:25.335Z,4.81
2022-11-16T02:45:56.598Z,4.48
2022-11-16T02:47:28.058Z,4.82
2022-11-16T02:48:59.490Z,4.43
2022-11-16T02:50:30.852Z,4.11
2022-11-16T02:52:02.365Z,4.11
2022-11-16T02:53:33.635Z,3.87
2022-11-16T02:55:06.054Z,3.76
2022-11-16T02:56:37.433Z,3.95
2022-11-16T02:58:09.256Z,4.02
2022-11-16T02:59:40.700Z,3.71
2022-11-16T03:01:12.041Z,3.77
2022-11-16T03:02:43.483Z,3.79
2022-11-16T03:04:14.827Z,4.20
2022-11-16T03:05:46.170Z,4.19
2022-11-16T03:07:17.582Z,4.27
2022-11-16T03:08:59.194Z,4.17
2022-11-16T03:10:30.609Z,4.15
2022-11-16T03:12:02.037Z,4.14
2022-11-16T03:13:34.069Z,4.02
2022-11-16T03:15:05.412Z,3.95
2022-11-16T03:16:36.758Z,3.95
2022-11-16T03:18:09.151Z,3.87
2022-11-16T03:19:40.657Z,3.83
2022-11-16T03:21:12.146Z,4.05
2022-11-16T03:22:43.813Z,4.11
2022-11-16T03:24:15.154Z,3.80
2022-11-16T03:25:46.479Z,3.78
2022-11-16T03:27:17.932Z,3.91
2022-11-16T03:28:49.245Z,3.66
2022-11-16T03:30:23.521Z,3.70
2022-11-16T03:31:55.247Z,3.96
2022-11-16T03:33:27.103Z,3.58
2022-11-16T03:34:58.567Z,3.14
2022-11-16T03:36:29.902Z,2.88
2022-11-16T03:38:01.395Z,3.17
2022-11-16T03:39:32.781Z,3.11
2022-11-16T03:41:04.516Z,2.93
2022-11-16T03:42:35.792Z,3.16
2022-11-16T03:44:07.021Z,2.74
2022-11-16T03:45:38.309Z,2.84
2022-11-16T03:47:09.632Z,2.88
2022-11-16T03:48:40.898Z,2.44
2022-11-16T03:50:12.131Z,2.67
2022-11-16T03:51:43.756Z,2.63
2022-11-16T03:53:15.122Z,2.36
2022-11-16T03:54:46.365Z,2.43
2022-11-16T03:56:17.818Z,2.67
2022-11-16T03:57:49.325Z,2.41
2022-11-16T03:59:20.735Z,2.38
2022-11-16T04:00:52.331Z,2.56
2022-11-16T04:02:23.725Z,2.40
2022-11-16T04:03:55.097Z,2.39
2022-11-16T04:05:26.638Z,2.38
2022-11-16T04:06:58.128Z,2.32
2022-11-16T04:08:29.395Z,2.19
2022-11-16T04:10:00.664Z,2.24
2022-11-16T04:11:32.035Z,2.25
2022-11-16T04:13:04.066Z,2.14
2022-11-16T04:14:35.847Z,2.10
2022-11-16T04:16:07.224Z,2.16
2022-11-16T04:17:39.007Z,2.12
2022-11-16T04:19:10.387Z,2.18
2022-11-16T04:20:41.765Z,2.01
2022-11-16T04:22:13.110Z,2.10
2022-11-16T04:23:49.720Z,2.12
2022-11-16T04:25:21.009Z,2.43
2022-11-16T04:26:52.579Z,1.98
2022-11-16T04:28:23.922Z,2.02
2022-11-16T04:29:55.469Z,2.04
2022-11-16T04:31:26.831Z,1.93
2022-11-16T04:32:58.661Z,1.69
2022-11-16T04:34:35.101Z,1.80
2022-11-16T04:36:06.418Z,1.88
2022-11-16T04:37:37.672Z,1.93
2022-11-16T04:39:09.081Z,2.00
2022-11-16T04:40:40.769Z,1.89
2022-11-16T04:42:12.483Z,2.08
2022-11-16T04:43:54.461Z,1.77
2022-11-16T04:45:53.213Z,1.66
2022-11-16T04:47:25.344Z,1.44
2022-11-16T04:48:56.645Z,1.47
2022-11-16T04:50:38.218Z,1.36
2022-11-16T04:52:09.745Z,1.39
2022-11-16T04:53:41.389Z,1.32
2022-11-16T04:55:12.857Z,1.43
2022-11-16T04:56:49.289Z,1.35
2022-11-16T04:58:20.698Z,1.64
2022-11-16T05:00:02.138Z,1.43
2022-11-16T05:01:33.407Z,1.47
2022-11-16T05:03:04.886Z,1.57
2022-11-16T05:04:36.246Z,1.58
2022-11-16T05:06:07.642Z,1.50
2022-11-16T05:07:39.220Z,1.73
2022-11-16T05:09:10.787Z,1.70
2022-11-16T05:10:59.023Z,1.87
2022-11-16T05:12:30.981Z,1.76
2022-11-16T05:14:22.329Z,1.96
2022-11-16T05:15:53.765Z,1.92
2022-11-16T05:17:26.385Z,1.95
2022-11-16T05:18:57.700Z,1.78
2022-11-16T05:20:40.768Z,2.00
2022-11-16T05:22:14.590Z,1.91
2022-11-16T05:23:56.033Z,1.86
2022-11-16T05:25:41.103Z,2.14
2022-11-16T05:27:12.448Z,2.07
2022-11-16T05:28:44.193Z,2.10
2022-11-16T05:30:15.641Z,2.05
2022-11-16T05:31:47.046Z,2.33
2022-11-16T05:33:18.864Z,2.34
2022-11-16T05:34:50.449Z,2.28
2022-11-16T05:36:23.325Z,2.38
2022-11-16T05:37:54.811Z,2.30
2022-11-16T05:39:26.131Z,2.51
2022-11-16T05:40:57.510Z,2.39
2022-11-16T05:42:35.174Z,2.38
2022-11-16T05:44:06.582Z,2.47
2022-11-16T05:45:37.856Z,2.41
2022-11-16T05:47:09.495Z,2.19
2022-11-16T05:48:51.230Z,2.18
2022-11-16T05:50:43.148Z,2.08
2022-11-16T05:52:19.786Z,2.07
2022-11-16T05:53:56.310Z,2.14
2022-11-16T05:55:27.848Z,1.93
2022-11-16T05:56:59.388Z,1.61
2022-11-16T05:58:41.227Z,1.51
2022-11-16T06:00:12.822Z,1.74
2022-11-16T06:01:44.500Z,1.76
2022-11-16T06:03:20.961Z,1.63
2022-11-16T06:04:57.885Z,1.59
2022-11-16T06:06:29.866Z,1.39
2022-11-16T06:08:01.138Z,1.26
2022-11-16T06:10:08.730Z,1.46
2022-11-16T06:11:40.130Z,1.37
2022-11-16T06:13:11.482Z,1.21
2022-11-16T06:15:36.790Z,1.40
2022-11-16T06:17:09.214Z,1.30
2022-11-16T06:18:40.583Z,1.53
2022-11-16T06:20:12.061Z,1.15
2022-11-16T06:21:43.397Z,1.32
2022-11-16T06:23:16.250Z,1.37
2022-11-16T06:24:47.550Z,1.37
2022-11-16T06:26:45.453Z,1.31
2022-11-16T06:28:17.019Z,1.37
2022-11-16T06:30:08.340Z,1.36
2022-11-16T06:32:15.443Z,1.38
2022-11-16T06:33:59.469Z,1.49
2022-11-16T06:35:30.881Z,1.52
2022-11-16T06:37:02.210Z,1.48
2022-11-16T06:38:34.008Z,1.50
2022-11-16T06:40:05.850Z,1.37
2022-11-16T06:42:22.669Z,1.35
2022-11-16T06:43:59.011Z,1.40
2022-11-16T06:46:09.152Z,1.29
2022-11-16T06:47:40.796Z,1.42
2022-11-16T06:49:12.460Z,1.34
2022-11-16T06:50:43.860Z,1.93
2022-11-16T06:52:15.122Z,1.45
2022-11-16T06:53:46.535Z,1.51
2022-11-16T06:55:23.037Z,1.42
2022-11-16T06:56:59.390Z,1.34
2022-11-16T06:58:31.436Z,1.16
2022-11-16T07:00:03.753Z,1.35
2022-11-16T07:01:46.904Z,1.34
2022-11-16T07:03:50.506Z,1.36
2022-11-16T07:05:21.942Z,1.49
2022-11-16T07:06:53.550Z,1.68
2022-11-16T07:08:25.002Z,1.52
2022-11-16T07:09:56.797Z,1.65
2022-11-16T07:11:28.266Z,1.83
2022-11-16T07:13:00.017Z,1.80
2022-11-16T07:14:31.354Z,1.72
2022-11-16T07:16:02.871Z,1.80
2022-11-16T07:17:34.362Z,1.80
2022-11-16T07:19:05.716Z,1.64
2022-11-16T07:20:37.255Z,1.90
2022-11-16T07:22:08.674Z,1.79
2022-11-16T07:23:40.240Z,2.23
2022-11-16T07:25:11.724Z,2.08
2022-11-16T07:26:44.092Z,2.10
2022-11-16T07:28:16.629Z,2.18
2022-11-16T07:29:48.234Z,2.24
2022-11-16T07:31:19.578Z,2.40
2022-11-16T07:32:50.995Z,2.29
2022-11-16T07:34:23.121Z,2.31
2022-11-16T07:35:56.059Z,2.48
2022-11-16T07:37:27.575Z,2.44
2022-11-16T07:38:58.921Z,2.50
2022-11-16T07:40:41.026Z,2.49
2022-11-16T07:42:14.458Z,2.67
2022-11-16T07:43:49.897Z,2.68
2022-11-16T07:45:24.335Z,2.61
2022-11-16T07:47:03.771Z,2.80
2022-11-16T07:48:35.450Z,2.66
2022-11-16T07:50:07.073Z,2.82
2022-11-16T07:51:39.040Z,2.66
2022-11-16T07:53:10.474Z,2.65
2022-11-16T07:54:44.032Z,2.61
2022-11-16T07:56:15.464Z,2.67
2022-11-16T07:57:51.940Z,2.57
2022-11-16T07:59:24.965Z,2.87
2022-11-16T08:00:56.794Z,2.69
2022-11-16T08:02:28.287Z,2.79
2022-11-16T08:03:59.710Z,2.60
2022-11-16T08:05:31.056Z,2.43
2022-11-16T08:07:02.932Z,2.49
2022-11-16T08:08:35.078Z,2.48
2022-11-16T08:10:06.930Z,2.56
2022-11-16T08:11:38.837Z,2.42
2022-11-16T08:13:10.289Z,2.58
2022-11-16T08:14:42.498Z,2.72
2022-11-16T08:16:19.320Z,4.27
2022-11-16T08:17:50.965Z,3.11
2022-11-16T08:19:22.422Z,2.85
2022-11-16T08:20:53.931Z,2.56
2022-11-16T08:22:25.717Z,2.41
2022-11-16T08:23:58.907Z,2.55
2022-11-16T08:25:30.674Z,2.42
2022-11-16T08:27:02.059Z,2.56
2022-11-16T08:28:33.583Z,2.50
2022-11-16T08:30:05.319Z,2.24
2022-11-16T08:31:36.831Z,2.47
2022-11-16T08:33:08.128Z,2.36
2022-11-16T08:34:39.639Z,2.33
2022-11-16T08:36:13.760Z,2.32
2022-11-16T08:37:45.686Z,2.47
2022-11-16T08:39:17.076Z,2.37
2022-11-16T08:40:48.817Z,2.55
2022-11-16T08:42:20.372Z,2.23
2022-11-16T08:43:52.002Z,2.33
2022-11-16T08:45:23.285Z,2.51
2022-11-16T08:46:55.000Z,2.94
2022-11-16T08:48:41.432Z,2.82
2022-11-16T08:50:12.802Z,2.72
2022-11-16T08:51:44.125Z,2.47
2022-11-16T08:53:15.442Z,2.66
2022-11-16T08:54:46.773Z,2.62
2022-11-16T08:56:18.225Z,3.13
2022-11-16T08:57:54.723Z,2.86
2022-11-16T08:59:26.032Z,2.45
2022-11-16T09:00:57.595Z,2.83
2022-11-16T09:02:28.872Z,3.14
2022-11-16T09:04:00.242Z,2.85
2022-11-16T09:05:31.544Z,2.57
2022-11-16T09:07:03.403Z,2.57
2022-11-16T09:08:35.432Z,2.96
2022-11-16T09:10:07.094Z,2.68
2022-11-16T09:11:38.538Z,2.31
2022-11-16T09:13:25.152Z,2.45
2022-11-16T09:14:56.896Z,2.74
2022-11-16T09:16:28.482Z,3.15
2022-11-16T09:18:00.453Z,3.27
2022-11-16T09:19:32.104Z,2.69
2022-11-16T09:21:03.929Z,2.53
2022-11-16T09:22:35.635Z,2.26
2022-11-16T09:24:07.037Z,2.48
2022-11-16T09:25:38.568Z,2.28
2022-11-16T09:27:15.196Z,2.21
2022-11-16T09:28:46.824Z,2.39
2022-11-16T09:30:18.134Z,2.04
2022-11-16T09:31:49.825Z,2.11
2022-11-16T09:33:21.333Z,1.95
2022-11-16T09:34:52.703Z,1.95
2022-11-16T09:36:29.174Z,1.80
2022-11-16T09:38:00.544Z,2.23
2022-11-16T09:39:32.548Z,1.93
2022-11-16T09:41:03.946Z,1.75
2022-11-16T09:42:35.649Z,2.01
2022-11-16T09:44:07.759Z,1.94
2022-11-16T09:45:40.045Z,1.97
2022-11-16T09:47:16.398Z,2.28
2022-11-16T09:48:48.602Z,2.43
2022-11-16T09:50:19.967Z,2.45
2022-11-16T09:51:51.465Z,2.25
2022-11-16T09:53:22.840Z,2.16
2022-11-16T09:54:54.897Z,2.06
2022-11-16T09:56:26.534Z,2.11
2022-11-16T09:57:57.833Z,2.03
2022-11-16T09:59:29.485Z,1.97
2022-11-16T10:01:00.802Z,2.03
2022-11-16T10:02:32.482Z,2.14
2022-11-16T10:04:03.913Z,1.89
2022-11-16T10:05:35.374Z,1.84
2022-11-16T10:07:06.724Z,1.85
2022-11-16T10:08:38.756Z,1.84
2022-11-16T10:10:10.362Z,1.83
2022-11-16T10:11:41.845Z,1.84
2022-11-16T10:13:13.168Z,1.83
2022-11-16T10:14:44.632Z,1.96
2022-11-16T10:16:16.803Z,1.80
2022-11-16T10:17:48.106Z,1.94
2022-11-16T10:19:19.680Z,2.10
2022-11-16T10:20:51.275Z,2.09
2022-11-16T10:22:22.727Z,1.84
2022-11-16T10:23:59.163Z,2.01
2022-11-16T10:25:30.954Z,1.71
2022-11-16T10:27:02.304Z,1.77
2022-11-16T10:28:33.793Z,2.12
2022-11-16T10:30:05.098Z,2.09
2022-11-16T10:31:36.585Z,2.05
2022-11-16T10:33:11.157Z,1.81
2022-11-16T10:34:42.756Z,2.03
2022-11-16T10:36:14.150Z,2.00
2022-11-16T10:37:45.642Z,1.87
2022-11-16T10:39:17.183Z,1.79
2022-11-16T10:40:48.578Z,1.99
2022-11-16T10:42:19.882Z,1.62
2022-11-16T10:43:51.141Z,1.88
2022-11-16T10:45:22.807Z,1.98
2022-11-16T10:46:54.167Z,1.68
2022-11-16T10:48:25.521Z,1.55
2022-11-16T10:49:57.185Z,1.79
2022-11-16T10:51:28.586Z,1.69
2022-11-16T10:53:00.020Z,1.51
2022-11-16T10:54:31.573Z,1.48
2022-11-16T10:56:03.004Z,1.56
2022-11-16T10:57:34.497Z,1.69
2022-11-16T10:59:05.937Z,1.45
2022-11-16T11:00:37.374Z,1.52
2022-11-16T11:02:08.662Z,1.71
2022-11-16T11:03:39.987Z,1.70
2022-11-16T11:05:11.366Z,1.64
2022-11-16T11:06:42.939Z,2.19
2022-11-16T11:08:15.023Z,2.24
2022-11-16T11:09:46.352Z,1.65
2022-11-16T11:11:17.772Z,1.57
2022-11-16T11:12:49.161Z,1.52
2022-11-16T11:14:20.567Z,1.10
2022-11-16T11:15:52.367Z,1.22
2022-11-16T11:17:23.781Z,1.54
2022-11-16T11:19:06.265Z,1.50
2022-11-16T11:20:44.742Z,1.43
2022-11-16T11:22:37.849Z,1.49
2022-11-16T11:24:42.255Z,1.42
2022-11-16T11:26:15.073Z,1.56
2022-11-16T11:27:46.514Z,1.44
2022-11-16T11:29:18.137Z,1.31
2022-11-16T11:30:49.543Z,1.53
2022-11-16T11:32:24.180Z,1.68
2022-11-16T11:33:56.114Z,1.63
2022-11-16T11:35:27.511Z,1.16
2022-11-16T11:36:58.896Z,1.37
2022-11-16T11:38:30.316Z,1.57
2022-11-16T11:40:01.705Z,1.59
2022-11-16T11:41:33.143Z,1.47
2022-11-16T11:43:05.253Z,1.45
2022-11-16T11:44:36.593Z,1.54
2022-11-16T11:46:08.454Z,1.59
2022-11-16T11:47:57.288Z,1.41
2022-11-16T11:49:33.706Z,1.74
2022-11-16T11:51:05.588Z,2.26
2022-11-16T11:52:37.125Z,1.51
2022-11-16T11:54:08.437Z,1.52
2022-11-16T11:55:39.763Z,1.42
2022-11-16T11:57:11.067Z,1.52
2022-11-16T11:58:42.518Z,1.51
2022-11-16T12:00:14.259Z,1.47
2022-11-16T12:01:45.876Z,1.58
2022-11-16T12:03:17.302Z,1.36
2022-11-16T12:04:48.690Z,1.74
2022-11-16T12:06:20.198Z,1.67
2022-11-16T12:07:51.509Z,1.71
2022-11-16T12:09:22.992Z,1.62
2022-11-16T12:10:54.375Z,1.58
2022-11-16T12:12:25.781Z,1.61
2022-11-16T12:13:57.297Z,2.21
2022-11-16T12:15:28.708Z,1.82
2022-11-16T12:17:00.370Z,1.56
2022-11-16T12:18:31.870Z,1.59
2022-11-16T12:20:03.272Z,1.45
2022-11-16T12:21:34.651Z,1.46
2022-11-16T12:23:06.201Z,1.48
2022-11-16T12:24:37.707Z,1.44
2022-11-16T12:26:09.075Z,1.57
2022-11-16T12:27:40.481Z,1.61
2022-11-16T12:29:11.852Z,1.53
2022-11-16T12:30:43.375Z,1.46
2022-11-16T12:32:14.737Z,1.76
2022-11-16T12:33:46.128Z,1.66
2022-11-16T12:35:17.526Z,1.73
2022-11-16T12:36:48.866Z,1.59
2022-11-16T12:38:26.060Z,1.87
2022-11-16T12:39:57.792Z,1.73
2022-11-16T12:41:29.201Z,1.60
2022-11-16T12:43:00.649Z,1.90
2022-11-16T12:44:32.081Z,1.62
2022-11-16T12:46:08.484Z,1.50
2022-11-16T12:47:40.271Z,1.63
2022-11-16T12:49:11.582Z,1.65
2022-11-16T12:50:42.931Z,1.61
2022-11-16T12:52:14.600Z,1.51
2022-11-16T12:53:46.087Z,1.40
2022-11-16T12:55:26.770Z,1.71
2022-11-16T12:56:59.037Z,1.60
2022-11-16T12:58:30.536Z,1.71
2022-11-16T13:00:01.846Z,1.50
2022-11-16T13:01:33.312Z,1.61
2022-11-16T13:03:04.683Z,1.68
2022-11-16T13:04:36.231Z,1.64
2022-11-16T13:06:07.591Z,1.68
2022-11-16T13:07:39.160Z,1.49
2022-11-16T13:09:10.639Z,1.48
2022-11-16T13:10:42.022Z,1.49
2022-11-16T13:12:13.486Z,1.51
2022-11-16T13:13:51.410Z,1.67
2022-11-16T13:15:24.536Z,1.66
2022-11-16T13:16:55.980Z,1.76
2022-11-16T13:18:27.350Z,1.69
2022-11-16T13:19:58.770Z,1.56
2022-11-16T13:21:30.170Z,1.56
2022-11-16T13:23:01.551Z,1.61
2022-11-16T13:24:32.886Z,1.48
2022-11-16T13:26:04.394Z,1.58
2022-11-16T13:27:35.803Z,1.31
2022-11-16T13:29:07.179Z,1.36
2022-11-16T13:30:38.728Z,1.67
2022-11-16T13:32:10.142Z,1.44
2022-11-16T13:33:43.961Z,1.40
2022-11-16T13:35:20.197Z,1.60
2022-11-16T13:36:51.546Z,1.42
2022-11-16T13:38:22.963Z,1.30
2022-11-16T13:39:54.381Z,1.58
2022-11-16T13:41:25.785Z,1.47
2022-11-16T13:42:57.093Z,1.48
2022-11-16T13:44:28.454Z,1.53
2022-11-16T13:45:59.856Z,1.89
2022-11-16T13:47:31.259Z,2.63
2022-11-16T13:49:02.528Z,3.05
2022-11-16T13:50:37.525Z,2.70
2022-11-16T13:54:43.326Z,2.78
2022-11-16T13:56:16.436Z,1.99
2022-11-16T13:57:47.749Z,1.82
2022-11-16T13:59:19.243Z,2.05
2022-11-16T14:01:00.871Z,1.62
2022-11-16T14:02:32.280Z,1.72
2022-11-16T14:04:30.998Z,1.67
2022-11-16T14:07:53.659Z,2.80
2022-11-16T14:09:40.063Z,2.34
2022-11-16T14:11:41.527Z,1.75
2022-11-16T14:13:12.830Z,1.66
2022-11-16T14:14:44.259Z,1.60
2022-11-16T14:16:44.247Z,1.71
2022-11-16T14:18:15.626Z,1.61
2022-11-16T14:19:57.074Z,1.55
2022-11-16T14:21:28.511Z,1.54
2022-11-16T14:22:59.875Z,1.51
2022-11-16T14:24:51.280Z,1.62
2022-11-16T14:26:33.435Z,1.65
2022-11-16T14:28:14.931Z,1.65
2022-11-16T14:30:01.878Z,1.33
2022-11-16T14:31:33.395Z,1.43
2022-11-16T14:33:04.896Z,1.33
2022-11-16T14:34:36.275Z,1.53
2022-11-16T14:36:07.641Z,1.53
2022-11-16T14:38:09.431Z,1.56
2022-11-16T14:41:47.065Z,1.61
2022-11-16T14:43:38.754Z,1.48
2022-11-16T14:45:10.344Z,1.66
2022-11-16T14:47:07.170Z,1.58
2022-11-16T14:48:53.342Z,1.56
2022-11-16T14:50:56.765Z,1.49
2022-11-16T14:52:39.193Z,1.66
2022-11-16T14:54:20.732Z,1.47
2022-11-16T14:55:52.089Z,1.37
2022-11-16T14:59:33.119Z,1.42
2022-11-16T15:01:09.662Z,1.33
2022-11-16T15:03:04.423Z,1.53
2022-11-16T15:04:41.536Z,1.48
2022-11-16T15:06:45.649Z,1.47
2022-11-16T15:08:17.423Z,1.57
2022-11-16T15:09:48.975Z,1.50
2022-11-16T15:11:20.473Z,1.46
2022-11-16T15:12:51.824Z,1.76
2022-11-16T15:14:23.199Z,1.51
2022-11-16T15:15:54.878Z,1.61
2022-11-16T15:17:31.827Z,1.90
2022-11-16T15:19:04.909Z,1.74
2022-11-16T15:21:16.521Z,1.50
2022-11-16T15:22:48.082Z,1.79
2022-11-16T15:24:30.505Z,1.76
2022-11-16T15:26:03.333Z,1.71
2022-11-16T15:27:35.020Z,1.67
2022-11-16T15:29:06.785Z,1.79
2022-11-16T15:30:38.206Z,1.85
2022-11-16T15:32:09.655Z,1.59
2022-11-16T15:33:45.955Z,1.72
2022-11-16T15:36:17.932Z,1.65
2022-11-16T15:37:50.173Z,1.78
2022-11-16T15:39:21.707Z,1.95
2022-11-16T15:40:53.331Z,1.97
2022-11-16T15:42:24.673Z,1.87
2022-11-16T15:44:13.154Z,1.78
2022-11-16T15:46:05.461Z,2.00
2022-11-16T15:47:37.392Z,2.11
2022-11-16T15:49:08.959Z,2.20
2022-11-16T15:50:40.705Z,2.41
2022-11-16T15:52:12.453Z,2.28
2022-11-16T15:53:44.168Z,2.49
2022-11-16T15:55:15.894Z,2.45
2022-11-16T15:56:47.709Z,2.72
2022-11-16T15:58:19.627Z,2.62
2022-11-16T15:59:56.868Z,2.46
2022-11-16T16:01:28.737Z,3.04
2022-11-16T16:03:00.725Z,2.68
2022-11-16T16:04:33.058Z,2.62
2022-11-16T16:06:04.475Z,2.53
2022-11-16T16:07:35.956Z,2.60
2022-11-16T16:09:07.332Z,2.34
2022-11-16T16:10:39.077Z,2.31
2022-11-16T16:12:10.343Z,2.27
2022-11-16T16:13:41.635Z,2.14
2022-11-16T16:15:13.013Z,2.37
2022-11-16T16:16:44.488Z,2.34
2022-11-16T16:18:16.009Z,2.17
2022-11-16T16:19:47.431Z,2.24
2022-11-16T16:21:18.888Z,2.23
2022-11-16T16:22:50.347Z,2.38
2022-11-16T16:24:21.647Z,2.31
2022-11-16T16:25:53.196Z,3.71
2022-11-16T16:27:24.514Z,2.98
2022-11-16T16:28:55.877Z,2.85
2022-11-16T16:30:27.252Z,2.83
2022-11-16T16:31:58.569Z,2.61
2022-11-16T16:33:29.902Z,2.84
2022-11-16T16:35:01.487Z,3.28
2022-11-16T16:36:32.935Z,2.87
2022-11-16T16:38:04.466Z,2.75
2022-11-16T16:39:36.865Z,2.69
2022-11-16T16:41:08.122Z,2.70
2022-11-16T16:42:39.509Z,2.70
2022-11-16T16:44:10.933Z,2.65
2022-11-16T16:47:43.557Z,2.80
2022-11-16T16:49:14.944Z,3.00
2022-11-16T16:50:46.594Z,3.26
2022-11-16T16:52:18.042Z,3.03
2022-11-16T16:53:49.536Z,3.06
2022-11-16T16:55:21.253Z,3.52
2022-11-16T16:56:52.911Z,3.27
2022-11-16T16:58:24.223Z,2.95
2022-11-16T16:59:55.799Z,3.08
2022-11-16T17:01:27.218Z,3.20
2022-11-16T17:02:58.575Z,3.49
2022-11-16T17:04:29.994Z,3.11
2022-11-16T17:06:01.581Z,3.20
2022-11-16T17:07:33.046Z,3.36
2022-11-16T17:09:04.653Z,3.35
2022-11-16T17:10:36.156Z,3.03
2022-11-16T17:12:07.466Z,3.47
2022-11-16T17:13:39.038Z,4.01
2022-11-16T17:15:13.840Z,5.49
2022-11-16T17:16:47.986Z,5.01
2022-11-16T17:18:19.327Z,5.27
2022-11-16T17:19:50.577Z,7.52
2022-11-16T17:21:21.927Z,11.26
2022-11-16T17:22:53.301Z,5.59
2022-11-16T17:24:24.541Z,4.44
2022-11-16T17:25:55.814Z,3.51
2022-11-16T17:27:27.581Z,2.90
2022-11-16T17:28:59.007Z,2.64
2022-11-16T17:30:30.352Z,2.84
2022-11-16T17:32:01.907Z,2.52
2022-11-16T17:33:33.565Z,2.45
2022-11-16T17:35:05.205Z,2.57
2022-11-16T17:36:36.895Z,2.67
2022-11-16T17:38:13.454Z,2.52
2022-11-16T17:39:44.870Z,2.64
2022-11-16T17:41:16.233Z,2.46
2022-11-16T17:42:47.846Z,2.39
2022-11-16T17:44:21.891Z,2.81
2022-11-16T17:45:54.171Z,2.92
2022-11-16T17:47:25.732Z,3.57
2022-11-16T17:48:57.094Z,3.31
2022-11-16T17:50:28.442Z,2.90
2022-11-16T17:51:59.811Z,2.60
2022-11-16T17:53:32.787Z,2.29
2022-11-16T17:55:04.431Z,2.80
2022-11-16T17:56:35.775Z,2.92
2022-11-16T17:58:07.094Z,2.73
2022-11-16T17:59:38.382Z,2.60
2022-11-16T18:01:09.856Z,2.47
2022-11-16T18:02:41.200Z,2.86
2022-11-16T18:04:12.535Z,3.19
2022-11-16T18:05:43.894Z,2.75
2022-11-16T18:07:15.442Z,2.85
2022-11-16T18:08:46.842Z,2.66
2022-11-16T18:10:19.510Z,2.73
2022-11-16T18:11:51.094Z,2.78
2022-11-16T18:13:22.647Z,2.73
2022-11-16T18:15:21.374Z,2.81
2022-11-16T18:16:59.163Z,3.05
2022-11-16T18:18:30.600Z,3.14
2022-11-16T18:20:01.904Z,3.37
2022-11-16T18:21:33.443Z,3.32
2022-11-16T18:23:05.011Z,2.80
2022-11-16T18:24:36.435Z,2.96
2022-11-16T18:26:07.730Z,2.78
2022-11-16T18:27:39.032Z,2.70
2022-11-16T18:29:10.367Z,2.90
2022-11-16T18:30:41.717Z,2.98
2022-11-16T18:32:25.587Z,2.94
2022-11-16T18:33:57.091Z,2.72
2022-11-16T18:35:28.461Z,2.48
2022-11-16T18:36:59.782Z,2.66
2022-11-16T18:38:31.129Z,2.86
2022-11-16T18:40:02.368Z,2.59
2022-11-16T18:41:33.741Z,2.90
2022-11-16T18:43:05.280Z,2.63
2022-11-16T18:44:36.631Z,2.80
2022-11-16T18:46:07.932Z,2.59
2022-11-16T18:47:39.265Z,2.74
2022-11-16T18:49:10.571Z,2.81
2022-11-16T18:50:41.978Z,3.22
2022-11-16T18:52:13.253Z,3.33
2022-11-16T18:53:49.743Z,3.55
2022-11-16T18:55:21.085Z,4.56
2022-11-16T18:56:52.445Z,4.43
2022-11-16T18:58:49.267Z,4.15
2022-11-16T19:00:21.480Z,3.34
2022-11-16T19:01:57.827Z,3.08
2022-11-16T19:03:29.356Z,3.06
2022-11-16T19:05:00.816Z,3.38
2022-11-16T19:06:32.137Z,3.45
2022-11-16T19:08:04.559Z,3.24
2022-11-16T19:09:35.904Z,3.44
2022-11-16T19:11:07.169Z,3.55
2022-11-16T19:12:39.041Z,3.21
2022-11-16T19:14:10.357Z,3.91
2022-11-16T19:15:41.917Z,5.06
2022-11-16T19:17:13.509Z,9.58
2022-11-16T19:18:44.880Z,8.93
2022-11-16T19:20:16.393Z,8.54
2022-11-16T19:21:47.632Z,10.98
2022-11-16T19:23:19.155Z,7.06
2022-11-16T19:24:50.788Z,5.81
2022-11-16T19:26:22.221Z,5.40
2022-11-16T19:27:53.773Z,4.42
2022-11-16T19:29:25.176Z,4.27
2022-11-16T19:30:56.477Z,4.46
2022-11-16T19:32:27.712Z,4.93
2022-11-16T19:33:59.020Z,6.43
2022-11-16T19:35:35.264Z,5.52
2022-11-16T19:37:06.658Z,3.88
2022-11-16T19:38:37.899Z,4.07
2022-11-16T19:40:10.058Z,4.46
2022-11-16T19:41:41.554Z,4.25
2022-11-16T19:43:19.060Z,3.85
2022-11-16T19:44:50.495Z,4.04
2022-11-16T19:46:21.758Z,3.72
2022-11-16T19:47:53.242Z,3.72
2022-11-16T19:49:25.700Z,4.58
2022-11-16T19:50:57.111Z,4.35
2022-11-16T19:52:28.408Z,3.96
2022-11-16T19:53:59.724Z,3.63
2022-11-16T19:55:30.979Z,3.85
2022-11-16T19:57:02.269Z,4.07
2022-11-16T19:58:33.905Z,4.11
2022-11-16T20:00:05.393Z,3.75
2022-11-16T20:01:37.038Z,3.88
2022-11-16T20:03:13.429Z,3.72
2022-11-16T20:04:44.687Z,3.77
2022-11-16T20:06:16.026Z,3.77
2022-11-16T20:07:47.374Z,4.23
2022-11-16T20:09:18.779Z,5.10
2022-11-16T20:10:50.082Z,4.27
2022-11-16T20:12:21.305Z,3.91
2022-11-16T20:13:52.632Z,4.05
2022-11-16T20:15:23.959Z,4.20
2022-11-16T20:16:55.274Z,3.83
2022-11-16T20:18:26.493Z,4.42
2022-11-16T20:19:57.754Z,4.60
2022-11-16T20:21:29.079Z,4.06
2022-11-16T20:23:00.779Z,3.75
2022-11-16T20:24:32.083Z,3.86
2022-11-16T20:26:03.422Z,3.72
2022-11-16T20:27:35.376Z,3.59
2022-11-16T20:29:06.686Z,3.25
2022-11-16T20:30:37.976Z,3.59
2022-11-16T20:32:09.258Z,3.36
2022-11-16T20:33:41.840Z,3.65
2022-11-16T20:35:18.807Z,5.50
2022-11-16T20:36:50.420Z,3.53
2022-11-16T20:38:21.751Z,3.71
2022-11-16T20:39:53.083Z,3.18
2022-11-16T20:41:24.430Z,2.99
2022-11-16T20:42:55.850Z,3.31
2022-11-16T20:44:27.382Z,2.89
2022-11-16T20:45:58.631Z,3.10
2022-11-16T20:47:29.943Z,2.91
2022-11-16T20:49:01.514Z,2.90
2022-11-16T20:50:33.018Z,3.13
2022-11-16T20:52:04.360Z,2.90
2022-11-16T20:53:36.289Z,2.97
2022-11-16T20:55:08.031Z,3.01
2022-11-16T20:56:39.289Z,2.65